^^
Datos históricos de la estación: Murcia-Puente Tocinos
Diario Informe para Agosto 02, 2021 Unidades:  Ingés    Métrico   Ambas
Diario Semanal Mensual Anual
  Máxima: Mínima: Promedio:
Temperatura: 84.7 °F 73 °F 78.1 °F
Punto de rocio: 69.1 °F 62.4 °F 65.7 °F
Humedad: 80% 47.7% 67%
Velocidad viento: 12.3mph 2mph 6.5mph
Racha viento: 22.3mph - -
Viento- - NE
Presión: 29.9 in 29.9 in -
Precipitación: 0 in    
 
 
Tabla de datos para Agosto 02, 2021
Hora Temperatura Punto de rocio Presión Viento Velocidad viento Racha viento Humedad Intensidad lluvia(por hora) Nubes
00:04 75.7 °F 68.9 °F 29.9 in NNE 5.9 mph 9.2 mph 79% 0 in
00:09 75.7 °F 68.7 °F 29.9 in NE 5.5 mph 9 mph 79% 0 in
00:14 75.7 °F 68.9 °F 29.9 in NNE 5.2 mph 11 mph 79.3% 0 in
00:19 75.7 °F 69.1 °F 29.9 in NE 5.3 mph 9.2 mph 80% 0 in
00:24 75.7 °F 69.1 °F 29.9 in NE 5.4 mph 7.4 mph 80% 0 in
00:29 75.7 °F 69.1 °F 29.9 in NE 4.7 mph 7 mph 80% 0 in
00:34 75.7 °F 69.1 °F 29.9 in NE 4.3 mph 7.4 mph 80% 0 in
00:39 75.7 °F 69.1 °F 29.9 in NE 4.6 mph 8.1 mph 80% 0 in
00:44 75.7 °F 69.1 °F 29.9 in NE 4.7 mph 8.5 mph 80% 0 in
00:49 75.7 °F 69.1 °F 29.9 in NE 4.7 mph 9 mph 80% 0 in
00:54 75.7 °F 69.1 °F 29.9 in NE 4.7 mph 10.4 mph 80% 0 in
00:59 75.6 °F 69.1 °F 29.9 in NNE 5.2 mph 10.4 mph 80% 0 in
01:04 75.6 °F 69.1 °F 29.9 in NE 5.4 mph 10 mph 80% 0 in
01:09 75.6 °F 69.1 °F 29.9 in NNE 5.7 mph 10.4 mph 80% 0 in
01:14 75.6 °F 69.1 °F 29.9 in NE 5.9 mph 10 mph 80% 0 in
01:19 75.4 °F 68.9 °F 29.9 in NE 5.1 mph 8 mph 80% 0 in
01:24 75.4 °F 68.5 °F 29.9 in NNE 4.7 mph 9.7 mph 79.2% 0 in
01:29 75.4 °F 68.4 °F 29.9 in NE 4.7 mph 10 mph 79% 0 in
01:34 75.4 °F 68.4 °F 29.9 in NNE 4.7 mph 9.2 mph 79% 0 in
01:39 75.4 °F 68.4 °F 29.9 in NNE 5 mph 9 mph 79% 0 in
01:44 75.4 °F 68.4 °F 29.9 in NNE 5.2 mph 9 mph 79% 0 in
01:49 75.4 °F 68.4 °F 29.9 in NNE 4.9 mph 9.2 mph 79% 0 in
01:54 75.2 °F 68.2 °F 29.9 in NNE 4.7 mph 9 mph 79% 0 in
01:59 75.2 °F 68.2 °F 29.9 in NNE 5.2 mph 8.7 mph 79% 0 in
02:04 75 °F 68.2 °F 29.9 in NNE 5.4 mph 9.2 mph 79% 0 in
02:09 75 °F 67.8 °F 29.9 in NNE 5.7 mph 9.2 mph 78.1% 0 in
02:14 75 °F 67.6 °F 29.9 in NE 5.9 mph 9 mph 78% 0 in
02:19 75 °F 67.6 °F 29.9 in NE 5.2 mph 9.2 mph 77.9% 0 in
02:24 75 °F 67.3 °F 29.9 in NNE 4.7 mph 9 mph 77% 0 in
02:29 75 °F 67.3 °F 29.9 in NE 5.2 mph 11.8 mph 77% 0 in
02:34 75 °F 66.9 °F 29.9 in NNE 5.4 mph 12 mph 76.2% 0 in
02:39 75 °F 66.9 °F 29.9 in NE 6.3 mph 10.4 mph 76% 0 in
02:44 75 °F 66.9 °F 29.9 in NE 6.9 mph 10 mph 76% 0 in
02:49 75 °F 66.9 °F 29.9 in NNE 5.8 mph 8.5 mph 76% 0 in
02:54 74.8 °F 66.9 °F 29.9 in NE 5.2 mph 10.4 mph 76% 0 in
02:59 74.8 °F 66.7 °F 29.9 in NNE 5.7 mph 10 mph 75.7% 0 in
03:04 74.8 °F 66.4 °F 29.9 in NE 5.9 mph 9 mph 75% 0 in
03:09 74.8 °F 66.4 °F 29.9 in NE 5.5 mph 9.2 mph 75% 0 in
03:14 74.8 °F 66.4 °F 29.9 in NE 5.2 mph 9 mph 75% 0 in
03:19 74.8 °F 66.4 °F 29.9 in NE 5.2 mph 9 mph 75% 0 in
03:24 74.8 °F 66.4 °F 29.9 in NNE 5.2 mph 9.2 mph 75% 0 in
03:29 74.7 °F 66.2 °F 29.9 in NNE 5.2 mph 9 mph 75% 0 in
03:34 74.7 °F 66.2 °F 29.9 in NNE 5.2 mph 9.7 mph 75% 0 in
03:39 74.7 °F 66 °F 29.9 in NNE 5.6 mph 10 mph 75% 0 in
03:44 74.5 °F 66 °F 29.9 in NNE 5.9 mph 10 mph 75% 0 in
03:49 74.5 °F 66 °F 29.9 in NNE 5.6 mph 9.2 mph 75% 0 in
03:54 74.5 °F 66 °F 29.9 in NNE 5.4 mph 9 mph 75% 0 in
03:59 74.3 °F 65.8 °F 29.9 in NNE 5 mph 7.4 mph 75% 0 in
04:04 74.3 °F 65.8 °F 29.9 in NNE 4.7 mph 9.7 mph 75% 0 in
04:09 74.3 °F 65.8 °F 29.9 in NNE 5 mph 10 mph 75% 0 in
04:14 74.1 °F 65.7 °F 29.9 in NNE 5.2 mph 9.2 mph 75% 0 in
04:19 74.1 °F 65.7 °F 29.9 in NNE 5.6 mph 10.4 mph 75% 0 in
04:24 74.1 °F 65.7 °F 29.9 in NNE 5.9 mph 10 mph 75% 0 in
04:29 74.1 °F 65.7 °F 29.9 in NE 5.6 mph 8.5 mph 75% 0 in
04:34 74.1 °F 65.7 °F 29.9 in NNE 5.4 mph 9 mph 75% 0 in
04:39 74.1 °F 65.7 °F 29.9 in NE 5.3 mph 9.2 mph 75% 0 in
04:44 74.1 °F 66 °F 29.9 in NE 5.2 mph 9 mph 75.7% 0 in
04:49 74.1 °F 66 °F 29.9 in NE 5.3 mph 8.1 mph 76% 0 in
04:54 74.1 °F 66 °F 29.9 in NE 5.4 mph 8.1 mph 76% 0 in
04:59 73.9 °F 65.8 °F 29.9 in NE 5.3 mph 8.1 mph 76% 0 in
05:04 73.9 °F 65.8 °F 29.9 in NNE 5.2 mph 8.5 mph 76% 0 in
05:09 73.9 °F 66 °F 29.9 in NE 5.3 mph 9.2 mph 76% 0 in
05:14 73.9 °F 65.8 °F 29.9 in NE 5.4 mph 9.2 mph 76% 0 in
05:19 73.9 °F 66 °F 29.9 in NE 5.3 mph 9 mph 76% 0 in
05:24 73.9 °F 66 °F 29.9 in NNE 5.2 mph 7.4 mph 76% 0 in
05:29 73.9 °F 65.8 °F 29.9 in NE 4.7 mph 7 mph 76% 0 in
05:34 73.9 °F 65.8 °F 29.9 in NE 4.3 mph 7 mph 76% 0 in
05:39 73.8 °F 66 °F 29.9 in NE 4.3 mph 8.1 mph 76.7% 0 in
05:44 73.8 °F 66 °F 29.9 in NE 4.3 mph 8 mph 77% 0 in
05:49 73.8 °F 66 °F 29.9 in NE 4.3 mph 7 mph 77% 0 in
05:54 73.6 °F 66 °F 29.9 in NE 4.3 mph 8.1 mph 77% 0 in
05:59 73.6 °F 65.8 °F 29.9 in NNE 4.3 mph 8 mph 77% 0 in
06:04 73.6 °F 65.8 °F 29.9 in NE 4.3 mph 5.2 mph 77% 0 in
06:09 73.6 °F 65.8 °F 29.9 in NE 3.6 mph 6.9 mph 77% 0 in
06:14 73.6 °F 65.8 °F 29.9 in NE 3.1 mph 7 mph 77% 0 in
06:19 73.4 °F 65.7 °F 29.9 in NNE 3.7 mph 6 mph 77% 0 in
06:24 73.2 °F 65.7 °F 29.9 in NNE 4 mph 5.2 mph 77.2% 0 in
06:29 73.2 °F 65.8 °F 29.9 in NNE 3.5 mph 5.9 mph 78% 0 in
06:34 73 °F 65.8 °F 29.9 in NE 3.1 mph 6 mph 78% 0 in
06:39 73 °F 65.8 °F 29.9 in NE 3.7 mph 5.8 mph 78% 0 in
06:44 73 °F 65.8 °F 29.9 in NNE 4 mph 6 mph 78% 0 in
06:49 73 °F 65.8 °F 29.9 in North 3.4 mph 5.2 mph 78% 0 in
06:54 73 °F 65.8 °F 29.9 in NE 2.9 mph 5.8 mph 78% 0 in
06:59 73 °F 65.8 °F 29.9 in NE 2.9 mph 6 mph 78% 0 in
07:04 73 °F 65.8 °F 29.9 in NNE 2.9 mph 6 mph 78% 0 in
07:09 73 °F 65.8 °F 29.9 in NNE 3 mph 5 mph 78% 0 in
07:14 73 °F 65.8 °F 29.9 in NE 3.1 mph 5 mph 78% 0 in
07:19 73 °F 65.8 °F 29.9 in NE 3 mph 5.2 mph 78% 0 in
07:24 73 °F 65.7 °F 29.9 in NNE 2.9 mph 5.2 mph 77.5% 0 in
07:29 73.2 °F 65.7 °F 29.9 in NNE 2.9 mph 5 mph 77% 0 in
07:34 73.2 °F 65.7 °F 29.9 in NE 2.9 mph 5 mph 77% 0 in
07:39 73.2 °F 65.7 °F 29.9 in NNE 2.9 mph 5 mph 77% 0 in
07:44 73.4 °F 65.7 °F 29.9 in North 2.9 mph 5 mph 77% 0 in
07:49 73.6 °F 65.8 °F 29.9 in North 2.3 mph 4 mph 77% 0 in
07:54 73.6 °F 65.8 °F 29.9 in North 2 mph 4.7 mph 77% 0 in
07:59 73.6 °F 65.5 °F 29.9 in North 2 mph 5 mph 76% 0 in
08:04 73.6 °F 65.5 °F 29.9 in NNE 2 mph 5 mph 76% 0 in
08:09 73.6 °F 65.5 °F 29.9 in NNE 2.6 mph 5 mph 76.1% 0 in
08:14 73.8 °F 65.8 °F 29.9 in NNE 2.9 mph 5 mph 76.4% 0 in
08:19 73.9 °F 65.8 °F 29.9 in North 2.5 mph 5.8 mph 76% 0 in
08:24 73.9 °F 65.8 °F 29.9 in NNE 2.4 mph 6 mph 76% 0 in
08:29 73.9 °F 65.8 °F 29.9 in NNE 3.1 mph 6 mph 76% 0 in
08:34 73.9 °F 65.8 °F 29.9 in NNE 3.6 mph 6 mph 76% 0 in
08:39 73.9 °F 66 °F 29.9 in NNE 3.2 mph 5 mph 76% 0 in
08:44 74.1 °F 66 °F 29.9 in NE 3.1 mph 6.4 mph 76% 0 in
08:49 74.1 °F 66 °F 29.9 in NNE 3.4 mph 7 mph 76% 0 in
08:54 74.1 °F 66 °F 29.9 in NE 3.6 mph 6 mph 76% 0 in
08:59 74.1 °F 66.2 °F 29.9 in NNE 3.2 mph 6.2 mph 76% 0 in
09:04 74.5 °F 66.4 °F 29.9 in NE 3.1 mph 6.2 mph 76% 0 in
09:09 74.5 °F 66.4 °F 29.9 in NE 3.9 mph 7.4 mph 76% 0 in
09:14 74.7 °F 66.4 °F 29.9 in NNE 4.3 mph 8.7 mph 75.7% 0 in
09:19 74.7 °F 66.2 °F 29.9 in NNE 4.8 mph 10.7 mph 75% 0 in
09:24 74.7 °F 66.2 °F 29.9 in NE 5.2 mph 11 mph 75% 0 in
09:29 74.8 °F 66.4 °F 29.9 in NNE 5.7 mph 9 mph 75% 0 in
09:34 74.8 °F 66.4 °F 29.9 in NNE 5.9 mph 9.2 mph 75% 0 in
09:39 75 °F 66.4 °F 29.9 in NE 5.6 mph 9.7 mph 74.6% 0 in
09:44 75 °F 66.2 °F 29.9 in NE 5.4 mph 11.8 mph 74.1% 0 in
09:49 75.4 °F 66.6 °F 29.9 in NE 6 mph 12 mph 74.4% 0 in
09:54 75.7 °F 66.7 °F 29.9 in NNE 6.4 mph 12 mph 73.3% 0 in
09:59 75.9 °F 66.6 °F 29.9 in NNE 6.3 mph 12 mph 73% 0 in
10:04 76.1 °F 66.7 °F 29.9 in NE 6.2 mph 11 mph 73% 0 in
10:09 76.5 °F 66.9 °F 29.9 in NE 6 mph 10 mph 72.2% 0 in
10:14 76.5 °F 66.7 °F 29.9 in NE 5.9 mph 11.8 mph 72% 0 in
10:19 76.6 °F 66.9 °F 29.9 in NE 6.6 mph 12 mph 72% 0 in
10:24 77 °F 66.9 °F 29.9 in NNE 6.9 mph 10.7 mph 71.2% 0 in
10:29 77.4 °F 67.1 °F 29.9 in NNE 6.9 mph 13 mph 71% 0 in
10:34 77.9 °F 67.5 °F 29.9 in NE 6.9 mph 13 mph 70.3% 0 in
10:39 78.3 °F 67.1 °F 29.9 in NE 6.2 mph 11.8 mph 68.5% 0 in
10:44 78.4 °F 66.9 °F 29.9 in NE 5.9 mph 13 mph 67.8% 0 in
10:49 78.3 °F 66.7 °F 29.9 in NNE 6.5 mph 13 mph 67.6% 0 in
10:54 78.3 °F 66.7 °F 29.9 in NNE 6.9 mph 11.5 mph 67.9% 0 in
10:59 78.1 °F 66.9 °F 29.9 in NNE 6.9 mph 12 mph 68.8% 0 in
11:04 78.1 °F 66.9 °F 29.9 in NNE 6.9 mph 13.7 mph 68.5% 0 in
11:09 78.3 °F 66.2 °F 29.9 in NE 6.3 mph 14 mph 66.8% 0 in
11:14 79 °F 66.2 °F 29.9 in NE 5.9 mph 12 mph 65.3% 0 in
11:19 79.3 °F 66 °F 29.9 in NE 6.9 mph 12 mph 63.8% 0 in
11:24 79.5 °F 66 °F 29.9 in NE 7.4 mph 13 mph 63.3% 0 in
11:29 79.5 °F 66.4 °F 29.9 in NNE 7.5 mph 13 mph 64% 0 in
11:34 79.5 °F 65.7 °F 29.9 in NE 7.6 mph 12 mph 63% 0 in
11:39 79.7 °F 65.8 °F 29.9 in NE 6.8 mph 11.5 mph 62.5% 0 in
11:44 80.1 °F 65.5 °F 29.9 in NE 6.4 mph 12 mph 61.1% 0 in
11:49 80.1 °F 65.1 °F 29.9 in NE 6.4 mph 12 mph 60.4% 0 in
11:54 80.2 °F 64.9 °F 29.9 in NE 6.4 mph 13 mph 59.7% 0 in
11:59 80.2 °F 64.2 °F 29.9 in NE 6.4 mph 13 mph 58.2% 0 in
12:04 80.1 °F 64.4 °F 29.9 in NNE 6.4 mph 13 mph 59% 0 in
12:09 80.2 °F 64.4 °F 29.9 in NNE 7.1 mph 12.7 mph 58.7% 0 in
12:14 80.6 °F 64.2 °F 29.9 in NE 7.6 mph 16.1 mph 57.4% 0 in
12:19 80.8 °F 63.9 °F 29.9 in NE 8.1 mph 16 mph 56.4% 0 in
12:24 81 °F 63.5 °F 29.9 in NNE 8.5 mph 15 mph 55.5% 0 in
12:29 81.1 °F 63.3 °F 29.9 in ENE 7.5 mph 13 mph 54.8% 0 in
12:34 81.7 °F 63.3 °F 29.9 in NE 6.9 mph 14 mph 54% 0 in
12:39 81.9 °F 63.5 °F 29.9 in NNE 6.5 mph 15 mph 53.9% 0 in
12:44 81.7 °F 63.5 °F 29.9 in NE 6.2 mph 15 mph 54% 0 in
12:49 81.3 °F 63.3 °F 29.9 in North 7.8 mph 14 mph 54.2% 0 in
12:54 81.7 °F 63.3 °F 29.9 in NNE 8.5 mph 15 mph 53.6% 0 in
12:59 82.2 °F 63.3 °F 29.9 in NE 8.3 mph 15 mph 53% 0 in
13:04 82.6 °F 63.3 °F 29.9 in NE 8.1 mph 15.2 mph 52.1% 0 in
13:09 82.8 °F 62.8 °F 29.9 in NNE 8.1 mph 17.3 mph 51.1% 0 in
13:14 82.8 °F 62.8 °F 29.9 in NNE 8.1 mph 17 mph 51.1% 0 in
13:19 82.8 °F 62.6 °F 29.9 in North 8.5 mph 16.1 mph 51% 0 in
13:24 82.8 °F 62.8 °F 29.9 in NE 8.7 mph 16 mph 51.1% 0 in
13:29 82.8 °F 63 °F 29.9 in NNE 7.9 mph 15 mph 51.3% 0 in
13:34 83.3 °F 62.8 °F 29.9 in NNE 7.4 mph 16.3 mph 50.3% 0 in
13:39 83.5 °F 63 °F 29.9 in NE 7.1 mph 16 mph 50.2% 0 in
13:44 83.3 °F 62.4 °F 29.9 in ENE 6.9 mph 14 mph 49.7% 0 in
13:49 83.5 °F 62.6 °F 29.9 in NE 6.9 mph 14 mph 49.5% 0 in
13:54 83.5 °F 62.8 °F 29.9 in NE 6.9 mph 18.4 mph 49.9% 0 in
13:59 82.9 °F 63.5 °F 29.9 in NE 9 mph 18 mph 52.3% 0 in
14:04 82.9 °F 63.7 °F 29.9 in NNE 10 mph 18.4 mph 52.5% 0 in
14:09 82.8 °F 63.5 °F 29.9 in NNE 10.4 mph 18 mph 52.5% 0 in
14:14 82.8 °F 63.3 °F 29.9 in NNE 10.7 mph 18.5 mph 52.3% 0 in
14:19 82.4 °F 63.5 °F 29.9 in NE 10.3 mph 19 mph 53% 0 in
14:24 82.8 °F 63.1 °F 29.9 in NE 10 mph 14 mph 51.6% 0 in
14:29 83.3 °F 63.1 °F 29.9 in NE 8.4 mph 17 mph 50.7% 0 in
14:34 83.7 °F 63.3 °F 29.9 in ENE 7.6 mph 17.3 mph 50.4% 0 in
14:39 84.4 °F 62.8 °F 29.9 in ENE 7.6 mph 14 mph 48.5% 0 in
14:44 84.7 °F 62.8 °F 29.9 in NE 7.6 mph 15 mph 47.8% 0 in
14:49 84.6 °F 62.6 °F 29.9 in NE 7.6 mph 15 mph 48.1% 0 in
14:54 84.2 °F 63 °F 29.9 in NE 7.6 mph 15 mph 49% 0 in
14:59 84.4 °F 62.6 °F 29.9 in NE 8.3 mph 16.3 mph 48.2% 0 in
15:04 84.6 °F 62.6 °F 29.9 in Este 8.7 mph 16 mph 48% 0 in
15:09 84.7 °F 63 °F 29.9 in NE 7.8 mph 15 mph 48% 0 in
15:14 84.7 °F 62.8 °F 29.9 in ENE 7.4 mph 17.3 mph 47.7% 0 in
15:19 84.7 °F 63.1 °F 29.9 in ENE 7.5 mph 17.5 mph 48.3% 0 in
15:24 84.4 °F 62.6 °F 29.9 in NE 7.6 mph 17 mph 48.2% 0 in
15:29 84 °F 62.6 °F 29.9 in ENE 9.1 mph 16.3 mph 48.7% 0 in
15:34 84.2 °F 63.3 °F 29.9 in NE 10.2 mph 16.1 mph 49.8% 0 in
15:39 84.4 °F 63.3 °F 29.9 in ENE 9.9 mph 17.3 mph 49.5% 0 in
15:44 84.4 °F 63.5 °F 29.9 in NE 9.7 mph 22.3 mph 49.8% 0 in
15:49 84 °F 63.9 °F 29.9 in NE 9.7 mph 22 mph 50.8% 0 in
15:54 83.7 °F 63.7 °F 29.9 in NE 9.7 mph 20 mph 51.3% 0 in
15:59 83.8 °F 63.9 °F 29.9 in NE 11.4 mph 18 mph 51.2% 0 in
16:04 83.8 °F 63.9 °F 29.9 in NE 12.3 mph 17.5 mph 51.1% 0 in
16:09 83.8 °F 64.2 °F 29.9 in NE 10.9 mph 19.7 mph 51.8% 0 in
16:14 84 °F 65.1 °F 29.9 in ENE 10 mph 20 mph 53.3% 0 in
16:19 83.8 °F 65.1 °F 29.9 in NE 10.4 mph 18.4 mph 53.3% 0 in
16:24 83.8 °F 64.9 °F 29.9 in NE 10.7 mph 18 mph 53% 0 in
16:29 84 °F 64.9 °F 29.9 in NE 9.4 mph 20.7 mph 52.8% 0 in
16:34 83.7 °F 64.9 °F 29.9 in NE 8.5 mph 21 mph 53.5% 0 in
16:39 83.1 °F 64.6 °F 29.9 in NE 10.7 mph 18.4 mph 53.7% 0 in
16:44 82.9 °F 64.6 °F 29.9 in ENE 11.8 mph 19 mph 54.1% 0 in
16:49 82.8 °F 65.3 °F 29.9 in ENE 10.7 mph 19 mph 55.8% 0 in
16:54 82.9 °F 65.7 °F 29.9 in ENE 10.2 mph 19 mph 56.1% 0 in
16:59 82.9 °F 65.7 °F 29.9 in ENE 9.6 mph 17.3 mph 55.8% 0 in
17:04 82.9 °F 65.7 °F 29.9 in ENE 9.2 mph 19.7 mph 56% 0 in
17:09 82.9 °F 65.8 °F 29.9 in NE 9.5 mph 20 mph 56.5% 0 in
17:14 82.8 °F 65.8 °F 29.9 in NE 9.7 mph 18.4 mph 56.6% 0 in
17:19 82.4 °F 66 °F 29.9 in NE 10.3 mph 20.8 mph 57.8% 0 in
17:24 82 °F 65.8 °F 29.9 in NE 10.7 mph 21 mph 58% 0 in
17:29 82 °F 65.7 °F 29.9 in NE 11 mph 21 mph 57.8% 0 in
17:34 82 °F 65.8 °F 29.9 in ENE 11.2 mph 20.8 mph 58% 0 in
17:39 82.2 °F 66 °F 29.9 in Este 10.4 mph 21 mph 57.9% 0 in
17:44 82.2 °F 66.4 °F 29.9 in ENE 10 mph 18 mph 58.8% 0 in
17:49 82 °F 66.2 °F 29.9 in ENE 9.5 mph 20.7 mph 58.8% 0 in
17:54 82 °F 66.2 °F 29.9 in NE 9.2 mph 21 mph 58.7% 0 in
17:59 82 °F 66 °F 29.9 in ENE 8.8 mph 17.3 mph 58.3% 0 in
18:04 82 °F 65.7 °F 29.9 in ENE 8.5 mph 17.3 mph 57.7% 0 in
18:09 82 °F 65.3 °F 29.9 in NE 8.2 mph 17.8 mph 57% 0 in
18:14 82 °F 65.3 °F 29.9 in NE 8.1 mph 18.4 mph 57% 0 in
18:19 81.9 °F 65.5 °F 29.9 in ENE 9.1 mph 18.4 mph 57.8% 0 in
18:24 81.7 °F 65.1 °F 29.9 in ENE 9.7 mph 18 mph 57.2% 0 in
18:29 81.7 °F 65.5 °F 29.9 in ENE 8.3 mph 19 mph 57.9% 0 in
18:34 81.5 °F 65.3 °F 29.9 in ENE 7.6 mph 19 mph 58% 0 in
18:39 81.3 °F 64.6 °F 29.9 in NE 8.9 mph 17.5 mph 57.1% 0 in
18:44 81.1 °F 64.4 °F 29.9 in ENE 9.7 mph 17.3 mph 56.9% 0 in
18:49 81.1 °F 63.9 °F 29.9 in NE 9.1 mph 17 mph 55.7% 0 in
18:54 81.1 °F 64.6 °F 29.9 in NE 8.7 mph 16 mph 57% 0 in
18:59 81.1 °F 64.4 °F 29.9 in ENE 8.6 mph 15 mph 56.9% 0 in
19:04 81.5 °F 64.4 °F 29.9 in ENE 8.5 mph 17.5 mph 56% 0 in
19:09 81.7 °F 64.9 °F 29.9 in NE 7.9 mph 17.5 mph 56.7% 0 in
19:14 81.7 °F 65.1 °F 29.9 in NE 7.6 mph 17.3 mph 57.3% 0 in
19:19 81.3 °F 64.8 °F 29.9 in ENE 8 mph 17 mph 57.1% 0 in
19:24 81.1 °F 65.5 °F 29.9 in ENE 8.1 mph 15.9 mph 59% 0 in
19:29 81.1 °F 65.7 °F 29.9 in ENE 8.4 mph 16.1 mph 59.3% 0 in
19:34 81.1 °F 66.2 °F 29.9 in ENE 8.7 mph 16 mph 60.6% 0 in
19:39 81 °F 65.8 °F 29.9 in ENE 9.3 mph 17.5 mph 60.2% 0 in
19:44 80.8 °F 66 °F 29.9 in ENE 9.7 mph 17 mph 60.8% 0 in
19:49 80.8 °F 66.4 °F 29.9 in ENE 8.6 mph 14 mph 61.8% 0 in
19:54 80.8 °F 66 °F 29.9 in ENE 8.1 mph 13 mph 61% 0 in
19:59 80.4 °F 65.5 °F 29.9 in ENE 7.8 mph 14 mph 60.5% 0 in
20:04 80.4 °F 66.2 °F 29.9 in ENE 7.6 mph 14 mph 62.1% 0 in
20:09 80.4 °F 66.7 °F 29.9 in NE 7.2 mph 13 mph 63% 0 in
20:14 80.4 °F 66.7 °F 29.9 in NE 6.9 mph 13 mph 63% 0 in
20:19 80.2 °F 66.6 °F 29.9 in NE 6.3 mph 14.7 mph 63.3% 0 in
20:24 79.9 °F 66.6 °F 29.9 in NE 5.9 mph 15 mph 63.9% 0 in
Murcia-Puente Tocinos, España
Compliments of Weather Underground - 2.75 mb

La estación de MeteoMurcia.com, publica sus datos en los siguientes proyectos:

Weather Underground PWS IMURCIAP2 Meteoclimatic www.awekas.at

W3Counter
Web Analytics